sensor_id;sensor_type;location;lat;lon;timestamp;P1;durP1;ratioP1;P2;durP2;ratioP2
57443;SDS011;43289;52.962;6.196;2022-09-11T00:01:34;21.38;;;15.43;;
57443;SDS011;43289;52.962;6.196;2022-09-11T00:04:00;19.13;;;14.60;;
57443;SDS011;43289;52.962;6.196;2022-09-11T00:06:27;18.10;;;13.45;;
57443;SDS011;43289;52.962;6.196;2022-09-11T00:08:54;18.27;;;13.68;;
57443;SDS011;43289;52.962;6.196;2022-09-11T00:11:24;21.80;;;15.52;;
57443;SDS011;43289;52.962;6.196;2022-09-11T00:13:51;27.08;;;19.17;;
57443;SDS011;43289;52.962;6.196;2022-09-11T00:16:22;22.85;;;15.90;;
57443;SDS011;43289;52.962;6.196;2022-09-11T00:18:50;23.58;;;17.02;;
57443;SDS011;43289;52.962;6.196;2022-09-11T00:21:16;25.73;;;17.75;;
57443;SDS011;43289;52.962;6.196;2022-09-11T00:23:43;19.77;;;16.17;;
57443;SDS011;43289;52.962;6.196;2022-09-11T00:26:09;22.15;;;15.63;;
57443;SDS011;43289;52.962;6.196;2022-09-11T00:28:35;20.08;;;15.70;;
57443;SDS011;43289;52.962;6.196;2022-09-11T00:31:10;20.70;;;16.02;;
57443;SDS011;43289;52.962;6.196;2022-09-11T00:33:37;20.67;;;15.40;;
57443;SDS011;43289;52.962;6.196;2022-09-11T00:36:07;21.05;;;16.60;;
57443;SDS011;43289;52.962;6.196;2022-09-11T00:38:54;21.42;;;14.63;;
57443;SDS011;43289;52.962;6.196;2022-09-11T00:41:21;19.92;;;15.50;;
57443;SDS011;43289;52.962;6.196;2022-09-11T00:43:49;20.80;;;14.98;;
57443;SDS011;43289;52.962;6.196;2022-09-11T00:46:15;22.55;;;16.17;;
57443;SDS011;43289;52.962;6.196;2022-09-11T00:48:41;20.10;;;16.00;;
57443;SDS011;43289;52.962;6.196;2022-09-11T00:51:08;24.17;;;16.77;;
57443;SDS011;43289;52.962;6.196;2022-09-11T00:53:35;22.63;;;17.15;;
57443;SDS011;43289;52.962;6.196;2022-09-11T00:56:04;21.08;;;15.52;;
57443;SDS011;43289;52.962;6.196;2022-09-11T00:58:35;24.48;;;16.98;;
57443;SDS011;43289;52.962;6.196;2022-09-11T01:01:02;23.30;;;16.85;;
57443;SDS011;43289;52.962;6.196;2022-09-11T01:03:28;22.33;;;14.50;;
57443;SDS011;43289;52.962;6.196;2022-09-11T01:05:56;22.80;;;16.55;;
57443;SDS011;43289;52.962;6.196;2022-09-11T01:08:23;20.58;;;15.93;;
57443;SDS011;43289;52.962;6.196;2022-09-11T01:16:00;28.90;;;19.63;;
57443;SDS011;43289;52.962;6.196;2022-09-11T01:26:26;21.90;;;16.55;;
57443;SDS011;43289;52.962;6.196;2022-09-11T01:31:33;16.75;;;12.82;;
57443;SDS011;43289;52.962;6.196;2022-09-11T01:34:09;15.15;;;11.70;;
57443;SDS011;43289;52.962;6.196;2022-09-11T01:36:51;15.32;;;12.00;;
57443;SDS011;43289;52.962;6.196;2022-09-11T01:39:18;15.35;;;11.38;;
57443;SDS011;43289;52.962;6.196;2022-09-11T01:41:46;15.05;;;10.80;;
57443;SDS011;43289;52.962;6.196;2022-09-11T01:44:16;13.25;;;9.77;;
57443;SDS011;43289;52.962;6.196;2022-09-11T01:46:44;10.23;;;8.32;;
57443;SDS011;43289;52.962;6.196;2022-09-11T01:54:37;16.52;;;9.90;;
57443;SDS011;43289;52.962;6.196;2022-09-11T01:57:11;10.32;;;8.32;;
57443;SDS011;43289;52.962;6.196;2022-09-11T01:59:41;30.88;;;10.25;;
57443;SDS011;43289;52.962;6.196;2022-09-11T02:02:10;136.77;;;16.65;;
57443;SDS011;43289;52.962;6.196;2022-09-11T02:04:38;220.48;;;20.67;;
57443;SDS011;43289;52.962;6.196;2022-09-11T02:07:06;114.20;;;14.52;;
57443;SDS011;43289;52.962;6.196;2022-09-11T02:09:36;81.68;;;12.07;;
57443;SDS011;43289;52.962;6.196;2022-09-11T02:12:03;38.63;;;10.38;;
57443;SDS011;43289;52.962;6.196;2022-09-11T02:19:43;55.50;;;12.43;;
57443;SDS011;43289;52.962;6.196;2022-09-11T02:22:11;26.27;;;9.70;;
57443;SDS011;43289;52.962;6.196;2022-09-11T02:24:37;18.20;;;9.35;;
57443;SDS011;43289;52.962;6.196;2022-09-11T02:27:04;17.30;;;9.00;;
57443;SDS011;43289;52.962;6.196;2022-09-11T02:29:31;11.55;;;8.75;;
57443;SDS011;43289;52.962;6.196;2022-09-11T02:31:58;17.48;;;9.57;;
57443;SDS011;43289;52.962;6.196;2022-09-11T02:34:26;61.72;;;15.38;;
57443;SDS011;43289;52.962;6.196;2022-09-11T02:39:26;12.48;;;9.20;;
57443;SDS011;43289;52.962;6.196;2022-09-11T02:49:43;14.20;;;9.63;;
57443;SDS011;43289;52.962;6.196;2022-09-11T02:54:50;11.20;;;8.15;;
57443;SDS011;43289;52.962;6.196;2022-09-11T02:57:35;12.88;;;9.05;;
57443;SDS011;43289;52.962;6.196;2022-09-11T03:00:05;12.30;;;9.57;;
57443;SDS011;43289;52.962;6.196;2022-09-11T03:02:32;7.10;;;5.45;;
57443;SDS011;43289;52.962;6.196;2022-09-11T03:05:01;6.70;;;5.43;;
57443;SDS011;43289;52.962;6.196;2022-09-11T03:07:27;6.45;;;4.88;;
57443;SDS011;43289;52.962;6.196;2022-09-11T03:09:53;6.53;;;4.32;;
57443;SDS011;43289;52.962;6.196;2022-09-11T03:12:19;9.93;;;6.43;;
57443;SDS011;43289;52.962;6.196;2022-09-11T03:14:45;8.55;;;6.20;;
57443;SDS011;43289;52.962;6.196;2022-09-11T03:17:12;9.30;;;7.05;;
57443;SDS011;43289;52.962;6.196;2022-09-11T03:19:38;9.00;;;5.75;;
57443;SDS011;43289;52.962;6.196;2022-09-11T03:22:04;11.07;;;6.20;;
57443;SDS011;43289;52.962;6.196;2022-09-11T03:24:30;9.50;;;6.38;;
57443;SDS011;43289;52.962;6.196;2022-09-11T03:26:57;7.88;;;5.85;;
57443;SDS011;43289;52.962;6.196;2022-09-11T03:29:23;9.60;;;7.18;;
57443;SDS011;43289;52.962;6.196;2022-09-11T03:31:49;10.90;;;7.10;;
57443;SDS011;43289;52.962;6.196;2022-09-11T03:34:15;10.48;;;6.53;;
57443;SDS011;43289;52.962;6.196;2022-09-11T03:36:42;4.72;;;3.45;;
57443;SDS011;43289;52.962;6.196;2022-09-11T03:39:08;8.45;;;5.65;;
57443;SDS011;43289;52.962;6.196;2022-09-11T03:41:34;7.93;;;5.40;;
57443;SDS011;43289;52.962;6.196;2022-09-11T03:44:00;10.73;;;6.53;;
57443;SDS011;43289;52.962;6.196;2022-09-11T03:46:27;8.80;;;6.35;;
57443;SDS011;43289;52.962;6.196;2022-09-11T03:48:53;17.77;;;8.70;;
57443;SDS011;43289;52.962;6.196;2022-09-11T03:51:19;16.27;;;8.40;;
57443;SDS011;43289;52.962;6.196;2022-09-11T03:53:45;12.90;;;8.40;;
57443;SDS011;43289;52.962;6.196;2022-09-11T03:56:12;10.70;;;7.90;;
57443;SDS011;43289;52.962;6.196;2022-09-11T03:58:39;9.15;;;7.20;;
57443;SDS011;43289;52.962;6.196;2022-09-11T04:01:12;9.35;;;5.88;;
57443;SDS011;43289;52.962;6.196;2022-09-11T04:03:38;7.90;;;5.82;;
57443;SDS011;43289;52.962;6.196;2022-09-11T04:06:04;9.00;;;6.05;;
57443;SDS011;43289;52.962;6.196;2022-09-11T04:08:31;8.05;;;6.40;;
57443;SDS011;43289;52.962;6.196;2022-09-11T04:11:00;11.60;;;6.88;;
57443;SDS011;43289;52.962;6.196;2022-09-11T04:13:31;8.75;;;6.00;;
57443;SDS011;43289;52.962;6.196;2022-09-11T04:16:01;8.35;;;6.63;;
57443;SDS011;43289;52.962;6.196;2022-09-11T04:18:29;9.48;;;7.22;;
57443;SDS011;43289;52.962;6.196;2022-09-11T04:20:55;8.38;;;6.18;;
57443;SDS011;43289;52.962;6.196;2022-09-11T04:23:21;8.13;;;5.97;;
57443;SDS011;43289;52.962;6.196;2022-09-11T04:25:47;8.88;;;6.85;;
57443;SDS011;43289;52.962;6.196;2022-09-11T04:28:13;9.13;;;6.78;;
57443;SDS011;43289;52.962;6.196;2022-09-11T04:30:39;11.43;;;8.65;;
57443;SDS011;43289;52.962;6.196;2022-09-11T04:33:06;9.57;;;6.82;;
57443;SDS011;43289;52.962;6.196;2022-09-11T04:35:35;10.30;;;8.10;;
57443;SDS011;43289;52.962;6.196;2022-09-11T04:38:01;10.45;;;6.90;;
57443;SDS011;43289;52.962;6.196;2022-09-11T04:40:27;6.60;;;4.97;;
57443;SDS011;43289;52.962;6.196;2022-09-11T04:42:53;112.53;;;12.80;;
57443;SDS011;43289;52.962;6.196;2022-09-11T04:45:19;48.65;;;8.45;;
57443;SDS011;43289;52.962;6.196;2022-09-11T04:47:45;132.48;;;13.30;;
57443;SDS011;43289;52.962;6.196;2022-09-11T04:50:11;6.78;;;5.15;;
57443;SDS011;43289;52.962;6.196;2022-09-11T04:52:37;7.85;;;5.53;;
57443;SDS011;43289;52.962;6.196;2022-09-11T04:55:03;15.45;;;8.20;;
57443;SDS011;43289;52.962;6.196;2022-09-11T04:57:29;7.97;;;5.78;;
57443;SDS011;43289;52.962;6.196;2022-09-11T04:59:55;7.75;;;5.75;;
57443;SDS011;43289;52.962;6.196;2022-09-11T05:02:22;7.72;;;5.88;;
57443;SDS011;43289;52.962;6.196;2022-09-11T05:04:48;7.60;;;6.05;;
57443;SDS011;43289;52.962;6.196;2022-09-11T05:07:14;7.38;;;5.72;;
57443;SDS011;43289;52.962;6.196;2022-09-11T05:09:40;5.38;;;3.97;;
57443;SDS011;43289;52.962;6.196;2022-09-11T05:12:06;3.78;;;3.00;;
57443;SDS011;43289;52.962;6.196;2022-09-11T05:14:32;5.40;;;3.47;;
57443;SDS011;43289;52.962;6.196;2022-09-11T05:16:59;7.45;;;4.05;;
57443;SDS011;43289;52.962;6.196;2022-09-11T05:19:25;5.72;;;4.30;;
57443;SDS011;43289;52.962;6.196;2022-09-11T05:21:52;5.97;;;4.80;;
57443;SDS011;43289;52.962;6.196;2022-09-11T05:24:19;6.18;;;4.70;;
57443;SDS011;43289;52.962;6.196;2022-09-11T05:26:46;7.30;;;5.45;;
57443;SDS011;43289;52.962;6.196;2022-09-11T05:29:14;6.97;;;5.63;;
57443;SDS011;43289;52.962;6.196;2022-09-11T05:31:40;23.90;;;6.72;;
57443;SDS011;43289;52.962;6.196;2022-09-11T05:34:07;41.33;;;8.30;;
57443;SDS011;43289;52.962;6.196;2022-09-11T05:36:33;27.48;;;5.93;;
57443;SDS011;43289;52.962;6.196;2022-09-11T05:39:00;7.22;;;5.35;;
57443;SDS011;43289;52.962;6.196;2022-09-11T05:41:28;9.02;;;5.50;;
57443;SDS011;43289;52.962;6.196;2022-09-11T05:43:54;7.30;;;6.13;;
57443;SDS011;43289;52.962;6.196;2022-09-11T05:46:20;8.07;;;6.60;;
57443;SDS011;43289;52.962;6.196;2022-09-11T05:48:46;8.65;;;7.10;;
57443;SDS011;43289;52.962;6.196;2022-09-11T05:51:16;10.25;;;7.18;;
57443;SDS011;43289;52.962;6.196;2022-09-11T05:53:44;11.57;;;8.77;;
57443;SDS011;43289;52.962;6.196;2022-09-11T05:56:12;8.82;;;7.32;;
57443;SDS011;43289;52.962;6.196;2022-09-11T05:58:38;8.75;;;6.95;;
57443;SDS011;43289;52.962;6.196;2022-09-11T06:01:14;12.18;;;7.72;;
57443;SDS011;43289;52.962;6.196;2022-09-11T06:03:41;9.25;;;7.43;;
57443;SDS011;43289;52.962;6.196;2022-09-11T06:06:08;9.00;;;7.75;;
57443;SDS011;43289;52.962;6.196;2022-09-11T06:08:34;9.90;;;7.57;;
57443;SDS011;43289;52.962;6.196;2022-09-11T06:11:01;9.15;;;7.53;;
57443;SDS011;43289;52.962;6.196;2022-09-11T06:13:28;10.93;;;8.23;;
57443;SDS011;43289;52.962;6.196;2022-09-11T06:15:54;10.88;;;7.68;;
57443;SDS011;43289;52.962;6.196;2022-09-11T06:18:21;13.60;;;8.68;;
57443;SDS011;43289;52.962;6.196;2022-09-11T06:20:56;17.00;;;10.60;;
57443;SDS011;43289;52.962;6.196;2022-09-11T06:23:22;11.40;;;9.35;;
57443;SDS011;43289;52.962;6.196;2022-09-11T06:25:49;18.38;;;12.48;;
57443;SDS011;43289;52.962;6.196;2022-09-11T06:28:21;11.68;;;10.15;;
57443;SDS011;43289;52.962;6.196;2022-09-11T06:30:51;14.50;;;11.48;;
57443;SDS011;43289;52.962;6.196;2022-09-11T06:33:17;11.65;;;9.93;;
57443;SDS011;43289;52.962;6.196;2022-09-11T06:35:54;15.55;;;11.82;;
57443;SDS011;43289;52.962;6.196;2022-09-11T06:38:21;17.70;;;13.23;;
57443;SDS011;43289;52.962;6.196;2022-09-11T06:40:47;21.85;;;16.20;;
57443;SDS011;43289;52.962;6.196;2022-09-11T06:43:14;22.88;;;16.70;;
57443;SDS011;43289;52.962;6.196;2022-09-11T06:45:40;25.85;;;17.10;;
57443;SDS011;43289;52.962;6.196;2022-09-11T06:48:06;15.07;;;11.77;;
57443;SDS011;43289;52.962;6.196;2022-09-11T06:50:35;14.90;;;11.77;;
57443;SDS011;43289;52.962;6.196;2022-09-11T06:53:05;14.95;;;12.80;;
57443;SDS011;43289;52.962;6.196;2022-09-11T06:55:31;18.23;;;15.02;;
57443;SDS011;43289;52.962;6.196;2022-09-11T06:58:00;18.30;;;15.43;;
57443;SDS011;43289;52.962;6.196;2022-09-11T07:00:27;15.18;;;11.88;;
57443;SDS011;43289;52.962;6.196;2022-09-11T07:02:54;19.92;;;15.90;;
57443;SDS011;43289;52.962;6.196;2022-09-11T07:05:23;14.35;;;12.30;;
57443;SDS011;43289;52.962;6.196;2022-09-11T07:07:53;18.20;;;14.93;;
57443;SDS011;43289;52.962;6.196;2022-09-11T07:10:19;15.57;;;13.05;;
57443;SDS011;43289;52.962;6.196;2022-09-11T07:12:46;20.73;;;17.65;;
57443;SDS011;43289;52.962;6.196;2022-09-11T07:15:12;25.83;;;19.00;;
57443;SDS011;43289;52.962;6.196;2022-09-11T07:17:38;22.38;;;18.13;;
57443;SDS011;43289;52.962;6.196;2022-09-11T07:20:04;18.73;;;15.77;;
57443;SDS011;43289;52.962;6.196;2022-09-11T07:22:31;21.65;;;16.08;;
57443;SDS011;43289;52.962;6.196;2022-09-11T07:25:00;21.60;;;16.40;;
57443;SDS011;43289;52.962;6.196;2022-09-11T07:27:26;26.58;;;20.95;;
57443;SDS011;43289;52.962;6.196;2022-09-11T07:29:52;26.98;;;20.70;;
57443;SDS011;43289;52.962;6.196;2022-09-11T07:32:19;16.48;;;13.98;;
57443;SDS011;43289;52.962;6.196;2022-09-11T07:34:47;17.42;;;13.40;;
57443;SDS011;43289;52.962;6.196;2022-09-11T07:37:13;20.10;;;17.30;;
57443;SDS011;43289;52.962;6.196;2022-09-11T07:39:39;19.30;;;15.68;;
57443;SDS011;43289;52.962;6.196;2022-09-11T07:42:05;15.77;;;13.13;;
57443;SDS011;43289;52.962;6.196;2022-09-11T07:44:32;18.60;;;15.68;;
57443;SDS011;43289;52.962;6.196;2022-09-11T07:46:58;22.05;;;17.20;;
57443;SDS011;43289;52.962;6.196;2022-09-11T07:49:27;18.88;;;15.10;;
57443;SDS011;43289;52.962;6.196;2022-09-11T07:51:53;18.65;;;14.95;;
57443;SDS011;43289;52.962;6.196;2022-09-11T07:54:19;19.77;;;16.67;;
57443;SDS011;43289;52.962;6.196;2022-09-11T07:56:46;16.38;;;12.32;;
57443;SDS011;43289;52.962;6.196;2022-09-11T07:59:12;18.27;;;15.40;;
57443;SDS011;43289;52.962;6.196;2022-09-11T08:01:38;16.40;;;13.23;;
57443;SDS011;43289;52.962;6.196;2022-09-11T08:04:08;12.68;;;11.30;;
57443;SDS011;43289;52.962;6.196;2022-09-11T08:06:35;13.10;;;10.23;;
57443;SDS011;43289;52.962;6.196;2022-09-11T08:09:06;13.15;;;11.45;;
57443;SDS011;43289;52.962;6.196;2022-09-11T08:11:35;17.95;;;11.20;;
57443;SDS011;43289;52.962;6.196;2022-09-11T08:14:01;13.65;;;12.35;;
57443;SDS011;43289;52.962;6.196;2022-09-11T08:16:27;13.05;;;11.02;;
57443;SDS011;43289;52.962;6.196;2022-09-11T08:18:53;11.13;;;9.25;;
57443;SDS011;43289;52.962;6.196;2022-09-11T08:21:20;11.80;;;9.98;;
57443;SDS011;43289;52.962;6.196;2022-09-11T08:23:46;11.88;;;9.90;;
57443;SDS011;43289;52.962;6.196;2022-09-11T08:26:14;12.60;;;9.55;;
57443;SDS011;43289;52.962;6.196;2022-09-11T08:28:41;10.07;;;8.18;;
57443;SDS011;43289;52.962;6.196;2022-09-11T08:31:07;11.10;;;8.50;;
57443;SDS011;43289;52.962;6.196;2022-09-11T08:33:34;10.73;;;8.07;;
57443;SDS011;43289;52.962;6.196;2022-09-11T08:36:01;10.25;;;8.07;;
57443;SDS011;43289;52.962;6.196;2022-09-11T08:38:28;8.75;;;7.53;;
57443;SDS011;43289;52.962;6.196;2022-09-11T08:40:57;10.13;;;8.63;;
57443;SDS011;43289;52.962;6.196;2022-09-11T08:43:29;12.13;;;8.68;;
57443;SDS011;43289;52.962;6.196;2022-09-11T08:46:01;8.73;;;7.53;;
57443;SDS011;43289;52.962;6.196;2022-09-11T08:51:04;10.80;;;8.05;;
57443;SDS011;43289;52.962;6.196;2022-09-11T08:53:31;12.27;;;7.30;;
57443;SDS011;43289;52.962;6.196;2022-09-11T08:56:02;9.48;;;7.20;;
57443;SDS011;43289;52.962;6.196;2022-09-11T09:01:25;11.65;;;7.75;;
57443;SDS011;43289;52.962;6.196;2022-09-11T09:06:35;13.07;;;6.50;;
57443;SDS011;43289;52.962;6.196;2022-09-11T09:17:13;7.68;;;4.85;;
57443;SDS011;43289;52.962;6.196;2022-09-11T09:19:51;8.35;;;4.88;;
57443;SDS011;43289;52.962;6.196;2022-09-11T09:22:26;6.88;;;4.88;;
57443;SDS011;43289;52.962;6.196;2022-09-11T09:24:57;7.43;;;5.50;;
57443;SDS011;43289;52.962;6.196;2022-09-11T09:27:47;8.05;;;4.80;;
57443;SDS011;43289;52.962;6.196;2022-09-11T09:30:14;7.95;;;4.20;;
57443;SDS011;43289;52.962;6.196;2022-09-11T09:32:46;6.70;;;3.60;;
57443;SDS011;43289;52.962;6.196;2022-09-11T09:35:16;6.13;;;4.28;;
57443;SDS011;43289;52.962;6.196;2022-09-11T09:37:44;7.72;;;5.10;;
57443;SDS011;43289;52.962;6.196;2022-09-11T09:40:13;7.15;;;4.82;;
57443;SDS011;43289;52.962;6.196;2022-09-11T09:42:43;6.35;;;4.40;;
57443;SDS011;43289;52.962;6.196;2022-09-11T09:47:59;6.23;;;4.53;;
57443;SDS011;43289;52.962;6.196;2022-09-11T09:53:05;6.18;;;3.90;;
57443;SDS011;43289;52.962;6.196;2022-09-11T09:55:35;5.28;;;3.35;;
57443;SDS011;43289;52.962;6.196;2022-09-11T09:58:03;6.18;;;3.17;;
57443;SDS011;43289;52.962;6.196;2022-09-11T10:00:30;7.95;;;3.67;;
57443;SDS011;43289;52.962;6.196;2022-09-11T10:02:56;4.70;;;2.95;;
57443;SDS011;43289;52.962;6.196;2022-09-11T10:05:24;6.05;;;3.30;;
57443;SDS011;43289;52.962;6.196;2022-09-11T10:07:58;5.10;;;3.40;;
57443;SDS011;43289;52.962;6.196;2022-09-11T10:10:46;6.43;;;3.60;;
57443;SDS011;43289;52.962;6.196;2022-09-11T10:13:20;4.95;;;3.28;;
57443;SDS011;43289;52.962;6.196;2022-09-11T10:15:49;5.22;;;3.13;;
57443;SDS011;43289;52.962;6.196;2022-09-11T10:26:14;5.68;;;2.22;;
57443;SDS011;43289;52.962;6.196;2022-09-11T10:28:40;4.05;;;2.15;;
57443;SDS011;43289;52.962;6.196;2022-09-11T10:31:06;4.57;;;3.05;;
57443;SDS011;43289;52.962;6.196;2022-09-11T10:33:39;5.05;;;2.92;;
57443;SDS011;43289;52.962;6.196;2022-09-11T10:36:06;5.93;;;2.80;;
57443;SDS011;43289;52.962;6.196;2022-09-11T10:38:34;5.93;;;2.97;;
57443;SDS011;43289;52.962;6.196;2022-09-11T10:41:06;8.50;;;2.85;;
57443;SDS011;43289;52.962;6.196;2022-09-11T10:43:34;9.82;;;2.78;;
57443;SDS011;43289;52.962;6.196;2022-09-11T10:46:02;4.45;;;2.00;;
57443;SDS011;43289;52.962;6.196;2022-09-11T10:48:28;4.43;;;2.15;;
57443;SDS011;43289;52.962;6.196;2022-09-11T10:51:03;5.80;;;2.10;;
57443;SDS011;43289;52.962;6.196;2022-09-11T10:53:29;4.32;;;2.40;;
57443;SDS011;43289;52.962;6.196;2022-09-11T10:55:58;5.55;;;2.10;;
57443;SDS011;43289;52.962;6.196;2022-09-11T10:58:26;7.45;;;2.50;;
57443;SDS011;43289;52.962;6.196;2022-09-11T11:00:55;6.53;;;2.15;;
57443;SDS011;43289;52.962;6.196;2022-09-11T11:03:25;4.35;;;2.13;;
57443;SDS011;43289;52.962;6.196;2022-09-11T11:11:21;4.55;;;1.80;;
57443;SDS011;43289;52.962;6.196;2022-09-11T11:13:59;4.30;;;2.17;;
57443;SDS011;43289;52.962;6.196;2022-09-11T11:31:46;4.10;;;1.60;;
57443;SDS011;43289;52.962;6.196;2022-09-11T11:37:12;2.50;;;1.45;;
57443;SDS011;43289;52.962;6.196;2022-09-11T11:42:12;3.63;;;1.65;;
57443;SDS011;43289;52.962;6.196;2022-09-11T11:44:48;3.40;;;2.13;;
57443;SDS011;43289;52.962;6.196;2022-09-11T11:47:15;3.38;;;1.77;;
57443;SDS011;43289;52.962;6.196;2022-09-11T11:49:49;2.17;;;1.40;;
57443;SDS011;43289;52.962;6.196;2022-09-11T11:54:55;3.10;;;1.45;;
57443;SDS011;43289;52.962;6.196;2022-09-11T11:57:25;4.40;;;1.75;;
57443;SDS011;43289;52.962;6.196;2022-09-11T12:00:07;5.13;;;2.33;;
57443;SDS011;43289;52.962;6.196;2022-09-11T12:02:38;4.65;;;1.85;;
57443;SDS011;43289;52.962;6.196;2022-09-11T12:05:09;3.95;;;2.08;;
57443;SDS011;43289;52.962;6.196;2022-09-11T12:07:36;4.53;;;1.67;;
57443;SDS011;43289;52.962;6.196;2022-09-11T12:10:17;3.33;;;1.60;;
57443;SDS011;43289;52.962;6.196;2022-09-11T12:12:46;3.55;;;1.40;;
57443;SDS011;43289;52.962;6.196;2022-09-11T12:15:17;3.22;;;1.55;;
57443;SDS011;43289;52.962;6.196;2022-09-11T12:17:43;4.50;;;1.35;;
57443;SDS011;43289;52.962;6.196;2022-09-11T12:22:43;3.50;;;1.38;;
57443;SDS011;43289;52.962;6.196;2022-09-11T12:32:44;1.77;;;1.30;;
57443;SDS011;43289;52.962;6.196;2022-09-11T12:37:48;3.95;;;1.73;;
57443;SDS011;43289;52.962;6.196;2022-09-11T12:40:24;3.08;;;1.30;;
57443;SDS011;43289;52.962;6.196;2022-09-11T12:45:38;3.60;;;1.52;;
57443;SDS011;43289;52.962;6.196;2022-09-11T12:48:11;3.35;;;1.70;;
57443;SDS011;43289;52.962;6.196;2022-09-11T12:50:39;2.53;;;1.30;;
57443;SDS011;43289;52.962;6.196;2022-09-11T12:53:14;5.25;;;1.50;;
57443;SDS011;43289;52.962;6.196;2022-09-11T12:56:03;4.95;;;1.73;;
57443;SDS011;43289;52.962;6.196;2022-09-11T12:58:30;2.70;;;1.48;;
57443;SDS011;43289;52.962;6.196;2022-09-11T13:03:45;3.28;;;1.60;;
57443;SDS011;43289;52.962;6.196;2022-09-11T13:06:12;4.20;;;1.58;;
57443;SDS011;43289;52.962;6.196;2022-09-11T13:08:44;3.05;;;1.58;;
57443;SDS011;43289;52.962;6.196;2022-09-11T13:13:57;3.33;;;1.90;;
57443;SDS011;43289;52.962;6.196;2022-09-11T13:16:29;3.40;;;1.98;;
57443;SDS011;43289;52.962;6.196;2022-09-11T13:21:51;4.32;;;2.08;;
57443;SDS011;43289;52.962;6.196;2022-09-11T13:24:23;3.60;;;1.77;;
57443;SDS011;43289;52.962;6.196;2022-09-11T13:26:54;4.55;;;1.83;;
57443;SDS011;43289;52.962;6.196;2022-09-11T13:29:24;3.10;;;1.98;;
57443;SDS011;43289;52.962;6.196;2022-09-11T13:31:52;3.55;;;2.00;;
57443;SDS011;43289;52.962;6.196;2022-09-11T13:34:19;3.55;;;1.95;;
57443;SDS011;43289;52.962;6.196;2022-09-11T13:36:48;3.47;;;1.60;;
57443;SDS011;43289;52.962;6.196;2022-09-11T13:39:15;4.43;;;2.35;;
57443;SDS011;43289;52.962;6.196;2022-09-11T13:41:41;4.43;;;2.40;;
57443;SDS011;43289;52.962;6.196;2022-09-11T13:44:32;4.32;;;2.55;;
57443;SDS011;43289;52.962;6.196;2022-09-11T13:46:54;4.93;;;2.20;;
57443;SDS011;43289;52.962;6.196;2022-09-11T13:51:50;3.20;;;1.95;;
57443;SDS011;43289;52.962;6.196;2022-09-11T13:54:17;2.85;;;2.28;;
57443;SDS011;43289;52.962;6.196;2022-09-11T13:59:43;6.28;;;2.90;;
57443;SDS011;43289;52.962;6.196;2022-09-11T14:05:17;4.13;;;2.42;;
57443;SDS011;43289;52.962;6.196;2022-09-11T14:15:23;6.15;;;2.08;;
57443;SDS011;43289;52.962;6.196;2022-09-11T14:17:49;5.72;;;2.08;;
57443;SDS011;43289;52.962;6.196;2022-09-11T14:20:17;4.97;;;1.75;;
57443;SDS011;43289;52.962;6.196;2022-09-11T14:22:44;3.85;;;1.73;;
57443;SDS011;43289;52.962;6.196;2022-09-11T14:25:21;2.72;;;1.67;;
57443;SDS011;43289;52.962;6.196;2022-09-11T14:27:48;3.45;;;2.03;;
57443;SDS011;43289;52.962;6.196;2022-09-11T14:30:25;3.15;;;2.13;;
57443;SDS011;43289;52.962;6.196;2022-09-11T14:35:38;3.90;;;1.90;;
57443;SDS011;43289;52.962;6.196;2022-09-11T14:38:04;3.60;;;2.33;;
57443;SDS011;43289;52.962;6.196;2022-09-11T14:40:30;4.38;;;1.75;;
57443;SDS011;43289;52.962;6.196;2022-09-11T14:42:56;3.60;;;1.80;;
57443;SDS011;43289;52.962;6.196;2022-09-11T14:45:23;4.50;;;1.90;;
57443;SDS011;43289;52.962;6.196;2022-09-11T14:47:50;3.67;;;2.00;;
57443;SDS011;43289;52.962;6.196;2022-09-11T14:50:16;2.83;;;1.70;;
57443;SDS011;43289;52.962;6.196;2022-09-11T14:52:42;5.55;;;1.90;;
57443;SDS011;43289;52.962;6.196;2022-09-11T14:55:12;3.95;;;2.00;;
57443;SDS011;43289;52.962;6.196;2022-09-11T14:57:38;4.30;;;2.40;;
57443;SDS011;43289;52.962;6.196;2022-09-11T15:00:04;8.13;;;2.03;;
57443;SDS011;43289;52.962;6.196;2022-09-11T15:02:31;4.13;;;2.47;;
57443;SDS011;43289;52.962;6.196;2022-09-11T15:04:57;6.70;;;2.10;;
57443;SDS011;43289;52.962;6.196;2022-09-11T15:07:24;5.75;;;2.67;;
57443;SDS011;43289;52.962;6.196;2022-09-11T15:09:51;5.30;;;2.55;;
57443;SDS011;43289;52.962;6.196;2022-09-11T15:12:18;5.10;;;2.88;;
57443;SDS011;43289;52.962;6.196;2022-09-11T15:14:44;4.40;;;2.50;;
57443;SDS011;43289;52.962;6.196;2022-09-11T15:17:13;4.93;;;2.80;;
57443;SDS011;43289;52.962;6.196;2022-09-11T15:19:42;4.93;;;2.65;;
57443;SDS011;43289;52.962;6.196;2022-09-11T15:22:11;4.07;;;2.40;;
57443;SDS011;43289;52.962;6.196;2022-09-11T15:24:37;3.97;;;2.33;;
57443;SDS011;43289;52.962;6.196;2022-09-11T15:27:03;6.18;;;2.60;;
57443;SDS011;43289;52.962;6.196;2022-09-11T15:29:29;7.53;;;2.83;;
57443;SDS011;43289;52.962;6.196;2022-09-11T15:31:56;5.38;;;2.35;;
57443;SDS011;43289;52.962;6.196;2022-09-11T15:34:22;6.50;;;2.58;;
57443;SDS011;43289;52.962;6.196;2022-09-11T15:36:48;4.68;;;2.40;;
57443;SDS011;43289;52.962;6.196;2022-09-11T15:39:16;5.10;;;2.55;;
57443;SDS011;43289;52.962;6.196;2022-09-11T15:41:42;6.32;;;3.25;;
57443;SDS011;43289;52.962;6.196;2022-09-11T15:44:26;5.75;;;2.75;;
57443;SDS011;43289;52.962;6.196;2022-09-11T15:46:53;3.22;;;2.28;;
57443;SDS011;43289;52.962;6.196;2022-09-11T15:49:20;5.20;;;2.88;;
57443;SDS011;43289;52.962;6.196;2022-09-11T15:51:47;4.95;;;3.03;;
57443;SDS011;43289;52.962;6.196;2022-09-11T15:54:13;6.57;;;3.45;;
57443;SDS011;43289;52.962;6.196;2022-09-11T15:56:40;6.43;;;3.30;;
57443;SDS011;43289;52.962;6.196;2022-09-11T15:59:06;5.18;;;2.92;;
57443;SDS011;43289;52.962;6.196;2022-09-11T16:01:33;5.28;;;3.47;;
57443;SDS011;43289;52.962;6.196;2022-09-11T16:04:05;5.72;;;3.20;;
57443;SDS011;43289;52.962;6.196;2022-09-11T16:06:32;6.00;;;3.47;;
57443;SDS011;43289;52.962;6.196;2022-09-11T16:08:59;5.88;;;2.65;;
57443;SDS011;43289;52.962;6.196;2022-09-11T16:11:28;4.30;;;2.55;;
57443;SDS011;43289;52.962;6.196;2022-09-11T16:13:56;4.18;;;2.50;;
57443;SDS011;43289;52.962;6.196;2022-09-11T16:16:22;5.20;;;2.35;;
57443;SDS011;43289;52.962;6.196;2022-09-11T16:18:48;6.90;;;2.60;;
57443;SDS011;43289;52.962;6.196;2022-09-11T16:21:15;5.50;;;2.33;;
57443;SDS011;43289;52.962;6.196;2022-09-11T16:23:42;4.47;;;2.17;;
57443;SDS011;43289;52.962;6.196;2022-09-11T16:26:10;5.20;;;2.10;;
57443;SDS011;43289;52.962;6.196;2022-09-11T16:28:36;4.82;;;2.05;;
57443;SDS011;43289;52.962;6.196;2022-09-11T16:31:03;4.88;;;2.60;;
57443;SDS011;43289;52.962;6.196;2022-09-11T16:33:30;5.00;;;2.50;;
57443;SDS011;43289;52.962;6.196;2022-09-11T16:35:58;4.20;;;2.47;;
57443;SDS011;43289;52.962;6.196;2022-09-11T16:38:25;4.55;;;2.03;;
57443;SDS011;43289;52.962;6.196;2022-09-11T16:41:26;6.82;;;3.22;;
57443;SDS011;43289;52.962;6.196;2022-09-11T16:43:51;3.38;;;2.35;;
57443;SDS011;43289;52.962;6.196;2022-09-11T16:46:19;5.10;;;2.30;;
57443;SDS011;43289;52.962;6.196;2022-09-11T16:48:48;3.63;;;2.35;;
57443;SDS011;43289;52.962;6.196;2022-09-11T16:51:16;4.00;;;2.47;;
57443;SDS011;43289;52.962;6.196;2022-09-11T16:53:43;5.63;;;2.53;;
57443;SDS011;43289;52.962;6.196;2022-09-11T16:56:13;5.60;;;3.00;;
57443;SDS011;43289;52.962;6.196;2022-09-11T16:58:40;4.28;;;2.92;;
57443;SDS011;43289;52.962;6.196;2022-09-11T17:01:10;3.50;;;2.20;;
57443;SDS011;43289;52.962;6.196;2022-09-11T17:03:38;4.15;;;2.67;;
57443;SDS011;43289;52.962;6.196;2022-09-11T17:06:05;4.47;;;2.88;;